createdAt,value
2023-03-04T00:03:34.510Z,40.50
2023-03-04T00:09:00.276Z,36.50
2023-03-04T00:11:43.274Z,36.80
2023-03-04T00:14:26.967Z,44.50
2023-03-04T00:17:10.653Z,40.80
2023-03-04T00:19:53.516Z,37.30
2023-03-04T00:25:19.283Z,36.30
2023-03-04T00:28:02.260Z,39.80
2023-03-04T00:30:45.234Z,40.20
2023-03-04T00:33:28.113Z,43.00
2023-03-04T00:36:11.904Z,39.20
2023-03-04T00:38:54.805Z,37.40
2023-03-04T00:41:38.040Z,34.70
2023-03-04T00:44:20.884Z,37.10
2023-03-04T00:49:46.633Z,34.20
2023-03-04T00:55:12.384Z,32.50
2023-03-04T00:57:55.528Z,36.70
2023-03-04T01:00:38.448Z,35.10
2023-03-04T01:03:21.381Z,37.60
2023-03-04T01:06:06.075Z,38.00
2023-03-04T01:08:48.995Z,39.70
2023-03-04T01:11:32.080Z,36.40
2023-03-04T01:14:15.138Z,38.30
2023-03-04T01:16:58.207Z,40.60
2023-03-04T01:19:41.147Z,36.40
2023-03-04T01:22:24.387Z,39.50
2023-03-04T01:25:08.693Z,38.50
2023-03-04T01:27:51.636Z,40.20
2023-03-04T01:30:35.561Z,37.50
2023-03-04T01:33:18.757Z,38.60
2023-03-04T01:36:01.880Z,37.20
2023-03-04T01:38:44.774Z,35.00
2023-03-04T01:41:28.407Z,36.70
2023-03-04T01:44:12.267Z,33.20
2023-03-04T01:46:56.342Z,36.40
2023-03-04T01:49:41.483Z,31.10
2023-03-04T01:52:26.015Z,33.20
2023-03-04T01:55:16.177Z,33.10
2023-03-04T01:57:59.212Z,35.00
2023-03-04T02:00:42.276Z,36.00
2023-03-04T02:03:40.865Z,34.90
2023-03-04T02:07:03.429Z,30.70
2023-03-04T02:09:51.413Z,31.70
2023-03-04T02:12:54.586Z,33.80
2023-03-04T02:16:13.733Z,30.70
2023-03-04T02:19:41.375Z,34.00
2023-03-04T02:23:08.276Z,29.40
2023-03-04T02:26:26.705Z,35.50
2023-03-04T02:30:03.344Z,30.90
2023-03-04T02:33:13.428Z,31.20
2023-03-04T02:36:12.595Z,36.40
2023-03-04T02:40:09.027Z,32.70
2023-03-04T02:43:12.546Z,30.60
2023-03-04T02:46:34.424Z,34.60
2023-03-04T02:50:08.286Z,30.30
2023-03-04T02:53:29.100Z,33.10
2023-03-04T02:57:07.169Z,28.30
2023-03-04T03:00:24.063Z,32.80
2023-03-04T03:03:54.892Z,32.10
2023-03-04T03:07:32.365Z,32.70
2023-03-04T03:10:43.971Z,29.10
2023-03-04T03:14:15.942Z,33.40
2023-03-04T03:17:35.511Z,28.90
2023-03-04T03:20:59.702Z,28.10
2023-03-04T03:24:08.899Z,27.70
2023-03-04T03:28:03.460Z,30.20
2023-03-04T03:31:58.583Z,26.70
2023-03-04T03:35:13.536Z,29.60
2023-03-04T03:38:57.302Z,32.00
2023-03-04T03:42:38.864Z,30.90
2023-03-04T03:46:43.049Z,27.70
2023-03-04T03:50:37.124Z,27.20
2023-03-04T03:54:23.073Z,21.50
2023-03-04T03:57:54.986Z,25.00
2023-03-04T04:01:52.612Z,27.00
2023-03-04T04:05:49.542Z,26.10
2023-03-04T04:09:50.187Z,28.80
2023-03-04T04:13:44.316Z,25.30
2023-03-04T04:17:41.021Z,27.40
2023-03-04T04:21:35.160Z,27.00
2023-03-04T04:25:19.016Z,29.60
2023-03-04T04:29:12.920Z,30.70
2023-03-04T04:32:42.209Z,28.00
2023-03-04T04:36:04.680Z,28.60
2023-03-04T04:40:08.848Z,27.80
2023-03-04T04:43:43.338Z,33.50
2023-03-04T04:47:47.397Z,25.50
2023-03-04T04:51:07.468Z,32.00
2023-03-04T04:55:11.513Z,21.90
2023-03-04T04:58:41.827Z,27.40
2023-03-04T05:02:26.396Z,25.60
2023-03-04T05:06:04.244Z,24.40
2023-03-04T05:09:50.807Z,26.80
2023-03-04T05:13:30.294Z,30.00
2023-03-04T05:17:14.295Z,26.70
2023-03-04T05:21:00.459Z,23.50
2023-03-04T05:24:37.420Z,28.50
2023-03-04T05:28:41.326Z,33.20
2023-03-04T05:32:45.428Z,27.80
2023-03-04T05:36:39.462Z,22.70
2023-03-04T05:40:25.789Z,29.50
2023-03-04T05:43:53.989Z,27.20
2023-03-04T05:47:47.906Z,31.90
2023-03-04T05:51:14.022Z,24.20
2023-03-04T05:55:09.164Z,25.90
2023-03-04T05:58:44.593Z,28.50
2023-03-04T06:02:12.670Z,36.80
2023-03-04T06:05:21.431Z,27.10
2023-03-04T06:08:30.540Z,27.40
2023-03-04T06:11:36.477Z,29.00
2023-03-04T06:15:07.094Z,34.00
2023-03-04T06:18:30.814Z,27.40
2023-03-04T06:24:31.711Z,33.60
2023-03-04T06:27:50.559Z,27.20
2023-03-04T06:30:42.804Z,27.30
2023-03-04T06:33:28.756Z,28.40
2023-03-04T06:36:25.952Z,35.30
2023-03-04T06:39:25.093Z,29.20
2023-03-04T06:42:27.232Z,29.30
2023-03-04T06:45:30.766Z,26.40
2023-03-04T06:48:54.205Z,28.30
2023-03-04T06:52:00.466Z,31.60
2023-03-04T06:55:21.087Z,28.60
2023-03-04T06:58:57.932Z,26.60
2023-03-04T07:01:57.139Z,29.80
2023-03-04T07:04:43.903Z,29.80
2023-03-04T07:08:12.210Z,28.70
2023-03-04T07:11:26.920Z,27.30
2023-03-04T07:14:27.991Z,29.70
2023-03-04T07:17:14.118Z,27.50
2023-03-04T07:20:10.379Z,25.90
2023-03-04T07:22:58.876Z,28.90
2023-03-04T07:25:51.292Z,26.90
2023-03-04T07:28:54.756Z,28.10
2023-03-04T07:31:46.045Z,24.60
2023-03-04T07:34:41.708Z,21.30
2023-03-04T07:37:46.115Z,29.30
2023-03-04T07:40:51.953Z,27.20
2023-03-04T07:44:04.785Z,25.80
2023-03-04T07:47:11.876Z,23.90
2023-03-04T07:50:03.932Z,31.10
2023-03-04T07:53:21.692Z,35.40
2023-03-04T07:56:39.782Z,28.80
2023-03-04T07:59:32.032Z,22.90
2023-03-04T08:02:43.708Z,24.90
2023-03-04T08:05:30.276Z,32.20
2023-03-04T08:08:35.629Z,31.00
2023-03-04T08:11:21.021Z,21.70
2023-03-04T08:14:17.929Z,25.40
2023-03-04T08:17:23.615Z,19.70
2023-03-04T08:20:36.361Z,19.10
2023-03-04T08:24:08.184Z,20.80
2023-03-04T08:27:24.468Z,29.00
2023-03-04T08:30:19.968Z,24.10
2023-03-04T08:33:46.492Z,26.40
2023-03-04T08:37:15.556Z,20.30
2023-03-04T08:40:37.282Z,23.90
2023-03-04T08:43:40.255Z,32.30
2023-03-04T08:46:45.271Z,23.70
2023-03-04T08:49:52.213Z,27.00
2023-03-04T08:52:36.439Z,25.60
2023-03-04T08:55:53.648Z,30.20
2023-03-04T08:59:09.485Z,25.40
2023-03-04T09:02:13.452Z,25.20
2023-03-04T09:05:39.495Z,26.60
2023-03-04T09:08:43.593Z,24.80
2023-03-04T09:11:38.684Z,17.00
2023-03-04T09:14:36.035Z,15.20
2023-03-04T09:17:37.169Z,22.10
2023-03-04T09:20:51.029Z,21.60
2023-03-04T09:23:38.052Z,17.70
2023-03-04T09:26:57.398Z,26.30
2023-03-04T09:29:57.048Z,19.30
2023-03-04T09:32:49.193Z,23.20
2023-03-04T09:35:44.386Z,21.40
2023-03-04T09:39:14.240Z,18.70
2023-03-04T09:42:32.966Z,17.70
2023-03-04T09:45:58.160Z,17.70
2023-03-04T09:48:47.973Z,17.60
2023-03-04T09:52:22.647Z,16.70
2023-03-04T09:55:51.691Z,17.30
2023-03-04T09:58:47.003Z,20.80
2023-03-04T10:02:11.492Z,18.00
2023-03-04T10:05:16.378Z,17.10
2023-03-04T10:08:32.156Z,15.40
2023-03-04T10:14:30.489Z,15.80
2023-03-04T10:17:42.568Z,9.40
2023-03-04T10:20:51.996Z,12.20
2023-03-04T10:23:37.793Z,9.90
2023-03-04T10:26:34.411Z,11.50
2023-03-04T10:29:21.351Z,10.00
2023-03-04T10:32:45.984Z,10.70
2023-03-04T10:35:55.110Z,13.50
2023-03-04T10:39:18.199Z,10.70
2023-03-04T10:42:29.060Z,10.40
2023-03-04T10:45:35.373Z,8.80
2023-03-04T10:48:58.938Z,10.30
2023-03-04T10:54:35.509Z,15.30
2023-03-04T10:57:30.220Z,7.90
2023-03-04T11:00:22.162Z,8.50
2023-03-04T11:03:44.496Z,13.70
2023-03-04T11:06:52.164Z,11.00
2023-03-04T11:09:35.171Z,7.10
2023-03-04T11:12:22.377Z,10.90
2023-03-04T11:15:56.250Z,9.80
2023-03-04T11:19:04.468Z,11.20
2023-03-04T11:21:51.303Z,12.30
2023-03-04T11:24:40.317Z,15.20
2023-03-04T11:27:36.190Z,11.40
2023-03-04T11:30:41.578Z,11.30
2023-03-04T11:34:08.824Z,9.30
2023-03-04T11:37:03.524Z,11.90
2023-03-04T11:39:54.157Z,11.80
2023-03-04T11:42:46.084Z,14.40
2023-03-04T11:45:51.968Z,16.50
2023-03-04T11:48:49.946Z,14.50
2023-03-04T11:51:45.236Z,10.60
2023-03-04T11:55:01.250Z,16.10
2023-03-04T11:58:13.952Z,14.90
2023-03-04T12:01:22.334Z,12.90
2023-03-04T12:04:53.078Z,13.80
2023-03-04T12:08:07.293Z,15.80
2023-03-04T12:11:25.593Z,15.60
2023-03-04T12:14:51.876Z,13.20
2023-03-04T12:17:44.129Z,12.50
2023-03-04T12:21:05.578Z,16.00
2023-03-04T12:24:28.948Z,10.80
2023-03-04T12:27:27.939Z,12.50
2023-03-04T12:30:43.786Z,13.50
2023-03-04T12:34:10.826Z,14.70
2023-03-04T12:36:59.698Z,15.00
2023-03-04T12:40:13.470Z,10.30
2023-03-04T12:43:26.735Z,13.40
2023-03-04T12:49:22.162Z,10.70
2023-03-04T12:52:49.015Z,13.80
2023-03-04T12:56:03.612Z,11.40
2023-03-04T12:58:52.845Z,20.20
2023-03-04T13:01:47.312Z,18.90
2023-03-04T13:05:21.323Z,8.20
2023-03-04T13:09:11.176Z,5.70
2023-03-04T13:12:15.672Z,4.50
2023-03-04T13:15:22.227Z,4.20
2023-03-04T13:19:01.342Z,3.70
2023-03-04T13:21:54.493Z,5.10
2023-03-04T13:24:51.527Z,5.90
2023-03-04T13:28:08.627Z,8.10
2023-03-04T13:30:59.402Z,7.50
2023-03-04T13:33:44.956Z,7.70
2023-03-04T13:37:17.314Z,9.90
2023-03-04T13:40:27.504Z,6.80
2023-03-04T13:43:39.839Z,7.40
2023-03-04T13:46:27.545Z,5.70
2023-03-04T13:49:26.341Z,9.50
2023-03-04T13:52:49.340Z,8.20
2023-03-04T13:55:43.132Z,8.90
2023-03-04T13:58:48.814Z,11.40
2023-03-04T14:01:35.765Z,12.20
2023-03-04T14:04:34.631Z,10.50
2023-03-04T14:07:39.719Z,9.30
2023-03-04T14:10:44.066Z,16.00
2023-03-04T14:13:41.029Z,14.60
2023-03-04T14:16:28.284Z,8.70
2023-03-04T14:19:44.928Z,14.40
2023-03-04T14:22:41.940Z,13.10
2023-03-04T14:25:31.019Z,16.00
2023-03-04T14:28:20.155Z,16.60
2023-03-04T14:31:03.425Z,15.00
2023-03-04T14:34:03.176Z,11.90
2023-03-04T14:36:56.036Z,13.60
2023-03-04T14:39:56.262Z,16.90
2023-03-04T14:42:55.924Z,46.10
2023-03-04T14:45:49.958Z,166.10
2023-03-04T14:48:36.488Z,268.80
2023-03-04T14:51:57.062Z,43.20
2023-03-04T14:55:01.026Z,36.60
2023-03-04T14:58:07.880Z,17.70
2023-03-04T15:01:20.742Z,14.80
2023-03-04T15:04:08.911Z,8.60
2023-03-04T15:06:57.975Z,7.90
2023-03-04T15:09:43.992Z,12.80
2023-03-04T15:12:47.785Z,6.90
2023-03-04T15:16:01.054Z,10.20
2023-03-04T15:19:03.620Z,6.40
2023-03-04T15:21:49.614Z,8.50
2023-03-04T15:24:55.443Z,6.70
2023-03-04T15:27:56.921Z,10.40
2023-03-04T15:30:40.402Z,7.00
2023-03-04T15:33:39.146Z,7.70
2023-03-04T15:36:37.803Z,8.10
2023-03-04T15:39:37.005Z,7.70
2023-03-04T15:42:54.989Z,9.70
2023-03-04T15:45:54.284Z,8.60
2023-03-04T15:49:04.318Z,11.80
2023-03-04T15:53:07.726Z,10.60
2023-03-04T15:56:20.603Z,9.50
2023-03-04T15:59:12.219Z,14.50
2023-03-04T16:01:55.291Z,15.30
2023-03-04T16:05:04.526Z,14.60
2023-03-04T16:08:27.629Z,13.70
2023-03-04T16:11:56.621Z,11.90
2023-03-04T16:15:31.516Z,21.40
2023-03-04T16:18:47.494Z,17.50
2023-03-04T16:22:27.813Z,15.70
2023-03-04T16:25:16.519Z,13.50
2023-03-04T16:28:05.796Z,15.20
2023-03-04T16:30:58.258Z,12.00
2023-03-04T16:33:50.659Z,12.90
2023-03-04T16:36:56.186Z,13.90
2023-03-04T16:40:10.884Z,12.80
2023-03-04T16:43:17.308Z,17.60
2023-03-04T16:46:30.234Z,13.50
2023-03-04T16:49:36.222Z,11.20
2023-03-04T16:52:44.821Z,12.00
2023-03-04T16:55:50.675Z,17.00
2023-03-04T16:58:50.853Z,15.50
2023-03-04T17:02:10.851Z,10.70
2023-03-04T17:05:47.900Z,11.30
2023-03-04T17:09:24.517Z,9.50
2023-03-04T17:12:33.707Z,9.20
2023-03-04T17:15:46.954Z,13.70
2023-03-04T17:18:53.292Z,16.60
2023-03-04T17:21:50.633Z,13.50
2023-03-04T17:24:41.526Z,10.90
2023-03-04T17:27:30.070Z,9.50
2023-03-04T17:30:16.545Z,9.10
2023-03-04T17:33:05.355Z,10.00
2023-03-04T17:35:51.784Z,15.60
2023-03-04T17:39:09.492Z,14.10
2023-03-04T17:42:24.014Z,18.80
2023-03-04T17:45:08.536Z,19.80
2023-03-04T17:48:36.009Z,23.60
2023-03-04T17:51:40.132Z,19.00
2023-03-04T17:54:46.072Z,22.50
2023-03-04T17:57:46.627Z,20.90
2023-03-04T18:00:53.152Z,22.40
2023-03-04T18:04:10.544Z,11.20
2023-03-04T18:06:56.114Z,10.90
2023-03-04T18:09:51.564Z,8.70
2023-03-04T18:13:17.916Z,11.20
2023-03-04T18:16:43.180Z,10.20
2023-03-04T18:19:29.233Z,9.40
2023-03-04T18:22:43.120Z,9.60
2023-03-04T18:25:28.900Z,9.40
2023-03-04T18:28:29.206Z,14.30
2023-03-04T18:31:47.161Z,14.30
2023-03-04T18:34:35.013Z,12.90
2023-03-04T18:37:24.487Z,14.60
2023-03-04T18:40:14.389Z,15.90
2023-03-04T18:43:27.927Z,17.20
2023-03-04T18:46:44.916Z,19.00
2023-03-04T18:49:37.993Z,26.20
2023-03-04T18:52:40.807Z,24.10
2023-03-04T18:55:26.894Z,20.60
2023-03-04T18:58:13.200Z,16.80
2023-03-04T19:00:57.107Z,18.60
2023-03-04T19:03:53.345Z,20.60
2023-03-04T19:07:00.468Z,21.20
2023-03-04T19:10:14.132Z,19.70
2023-03-04T19:12:59.619Z,20.20
2023-03-04T19:15:43.078Z,21.40
2023-03-04T19:18:44.589Z,14.80
2023-03-04T19:21:59.155Z,13.10
2023-03-04T19:24:45.901Z,14.20
2023-03-04T19:27:33.503Z,14.30
2023-03-04T19:30:37.101Z,12.00
2023-03-04T19:33:20.628Z,16.00
2023-03-04T19:36:34.681Z,23.30
2023-03-04T19:39:55.216Z,24.10
2023-03-04T19:43:12.769Z,22.20
2023-03-04T19:46:03.714Z,24.60
2023-03-04T19:48:50.406Z,31.40
2023-03-04T19:51:45.456Z,26.10
2023-03-04T19:54:56.903Z,28.40
2023-03-04T19:58:23.481Z,26.30
2023-03-04T20:02:04.771Z,21.20
2023-03-04T20:05:48.668Z,28.60
2023-03-04T20:09:27.191Z,30.90
2023-03-04T20:12:27.619Z,26.70
2023-03-04T20:16:11.956Z,28.20
2023-03-04T20:19:36.572Z,29.40
2023-03-04T20:23:21.854Z,28.40
2023-03-04T20:26:51.045Z,28.80
2023-03-04T20:30:31.125Z,27.50
2023-03-04T20:34:24.887Z,30.60
2023-03-04T20:38:04.512Z,35.40
2023-03-04T20:41:50.836Z,42.20
2023-03-04T20:45:45.728Z,41.20
2023-03-04T20:49:24.258Z,47.90
2023-03-04T20:52:46.501Z,40.40
2023-03-04T20:56:09.458Z,41.10
2023-03-04T21:00:03.269Z,45.40
2023-03-04T21:03:35.007Z,49.00
2023-03-04T21:07:32.079Z,50.70
2023-03-04T21:11:28.912Z,51.80
2023-03-04T21:14:55.103Z,52.00
2023-03-04T21:18:39.409Z,48.10
2023-03-04T21:22:19.217Z,53.10
2023-03-04T21:25:41.431Z,53.90
2023-03-04T21:29:34.970Z,41.60
2023-03-04T21:33:13.651Z,45.10
2023-03-04T21:36:42.794Z,45.10
2023-03-04T21:39:54.270Z,44.60
2023-03-04T21:43:24.764Z,42.80
2023-03-04T21:46:54.143Z,41.30
2023-03-04T21:50:21.825Z,35.70
2023-03-04T21:54:16.674Z,42.90
2023-03-04T21:57:49.348Z,37.00
2023-03-04T22:01:04.840Z,31.50
2023-03-04T22:04:00.545Z,37.70
2023-03-04T22:06:54.621Z,31.30
2023-03-04T22:10:35.197Z,31.90
2023-03-04T22:13:53.874Z,32.40
2023-03-04T22:17:06.571Z,29.30
2023-03-04T22:20:09.076Z,33.60
2023-03-04T22:23:17.660Z,33.10
2023-03-04T22:26:48.398Z,31.60
2023-03-04T22:30:33.836Z,28.20
2023-03-04T22:34:03.539Z,33.40
2023-03-04T22:37:20.320Z,33.70
2023-03-04T22:43:45.921Z,34.50
2023-03-04T22:51:02.814Z,29.80
2023-03-04T22:54:36.457Z,33.60
2023-03-04T22:58:19.622Z,33.20
2023-03-04T23:02:23.688Z,30.80
2023-03-04T23:06:19.712Z,36.00
2023-03-04T23:09:33.388Z,43.60
2023-03-04T23:12:48.843Z,42.20
2023-03-04T23:16:42.344Z,40.40
2023-03-04T23:20:29.748Z,38.60
2023-03-04T23:24:02.469Z,43.60
2023-03-04T23:27:35.543Z,42.60
2023-03-04T23:31:06.196Z,41.90
2023-03-04T23:34:18.391Z,39.50
2023-03-04T23:37:50.100Z,41.30
2023-03-04T23:41:26.499Z,41.70
2023-03-04T23:44:54.748Z,37.30
2023-03-04T23:48:28.717Z,32.10
2023-03-04T23:52:25.374Z,36.50
2023-03-04T23:55:48.178Z,32.90
2023-03-04T23:59:21.278Z,27.80
